Aérodrome :
LOGIN :

S'inscrire | Disclaimer

   EN    FR    IT 

 










Légende :    VFR   VFR Marginal   IFR   IFR Intensif   IFR Très Intensif
Visi : 
Plafond : 
>= 8 km
>= 3000ft
5 à 8 km
1000 à 3000 ft
1500m à 5 km
500 à 1000 ft
800 à 1500m
200 à 500 ft
< 800m
< 200 ft
Symboles :   Orages  Brouillard  Fortes neiges  Fortes précipitations  Vent > 20 kt
SIGMETs :   Divers  Orages  Givrage  Turbulence  Onde Orograph.  Cendres Volcan.







- Altitude de l'aérodrome : 27 ft
- Code IATA : PMI


LEPA - Palma de Mallorca

DERNIER METAR :
  • 130400Z 02002KT CAVOK 14/13 Q1020 NOSIG

METARs EXPIRÉS :
  • 130330Z 04002KT CAVOK 13/13 Q1020 NOSIG
  • 130300Z 35003KT CAVOK 14/13 Q1020 NOSIG
  • 130230Z 06002KT CAVOK 14/13 Q1020 NOSIG
  • 130200Z 35003KT 300V020 CAVOK 14/13 Q1020 NOSIG
  • 130130Z 00000KT CAVOK 14/14 Q1020 NOSIG

TAF TAF LEPA
Valide du 13 à 00h jusqu'au 14 à 00h UTC


122300Z 1300/1324 04006KT 9999 SCT015 TX23/1312Z TN12/1306Z
TEMPO 1300/1307 VRB02KT 2000 BR BKN010
PROB30
TEMPO 1300/1306 1000 BCFG BKN003
Pas de NOTAMs connus pour ce terrain.



MET'MAP, la Météo Aéronautique d'un coup d'oeil ! - Copyright ORBIFLY Décembre 2007 - Disclaimer

ORBIFLY MET'MAP TEAM :

Programmation & Développement : Alexandra Zaïnal
Conception & Développement : Baudouin d'Aumeries
Co-Programmation & Développement : Marc-Olivier Méhu
Soutien technique & logistique : Manuel Goepfert

Contact : metmap@orbifly.com




SOURCES & CREDITS :

   NOAA